createdAt,value
2017-11-25T00:00:23.226Z,99704.20
2017-11-25T00:02:49.661Z,99707.41
2017-11-25T00:05:16.107Z,99709.53
2017-11-25T00:07:42.538Z,99717.23
2017-11-25T00:10:08.964Z,99709.27
2017-11-25T00:12:36.122Z,99710.23
2017-11-25T00:15:02.447Z,99709.31
2017-11-25T00:17:28.966Z,99713.52
2017-11-25T00:19:55.409Z,99711.91
2017-11-25T00:22:21.783Z,99718.84
2017-11-25T00:24:48.141Z,99722.94
2017-11-25T00:27:14.518Z,99723.48
2017-11-25T00:29:41.754Z,99722.50
2017-11-25T00:32:08.104Z,99718.50
2017-11-25T00:34:34.435Z,99719.70
2017-11-25T00:37:00.974Z,99717.20
2017-11-25T00:39:27.408Z,99720.75
2017-11-25T00:41:53.812Z,99712.60
2017-11-25T00:44:20.285Z,99717.92
2017-11-25T00:46:47.326Z,99715.77
2017-11-25T00:49:13.770Z,99719.64
2017-11-25T00:51:40.195Z,99717.26
2017-11-25T00:54:06.638Z,99710.24
2017-11-25T00:56:33.167Z,99710.82
2017-11-25T00:58:59.604Z,99714.95
2017-11-25T01:01:26.037Z,99707.47
2017-11-25T01:03:53.197Z,99706.36
2017-11-25T01:06:19.622Z,99704.71
2017-11-25T01:08:46.068Z,99701.92
2017-11-25T01:11:12.492Z,99700.23
2017-11-25T01:13:38.934Z,99659.30
2017-11-25T01:16:05.369Z,99705.14
2017-11-25T01:18:31.796Z,99705.65
2017-11-25T01:20:59.050Z,99699.67
2017-11-25T01:23:25.492Z,99696.47
2017-11-25T01:25:51.920Z,99702.14
2017-11-25T01:28:18.287Z,99700.31
2017-11-25T01:30:44.684Z,99700.86
2017-11-25T01:33:11.119Z,99693.23
2017-11-25T01:35:37.555Z,99693.24
2017-11-25T01:38:04.710Z,99691.78
2017-11-25T01:40:31.243Z,99686.17
2017-11-25T01:42:57.680Z,99684.08
2017-11-25T01:45:24.121Z,99688.25
2017-11-25T01:47:50.555Z,99682.59
2017-11-25T01:50:16.982Z,99693.64
2017-11-25T01:52:43.519Z,99690.66
2017-11-25T01:55:10.578Z,99693.30
2017-11-25T01:57:37.014Z,99693.68
2017-11-25T02:00:03.442Z,99699.67
2017-11-25T02:02:29.874Z,99694.34
2017-11-25T02:04:56.309Z,99701.84
2017-11-25T02:07:22.750Z,99699.60
2017-11-25T02:09:49.184Z,99694.94
2017-11-25T02:12:16.429Z,99695.28
2017-11-25T02:14:42.966Z,99686.41
2017-11-25T02:17:09.410Z,99686.05
2017-11-25T02:19:35.770Z,99691.85
2017-11-25T02:22:02.136Z,99697.11
2017-11-25T02:24:28.577Z,99696.63
2017-11-25T02:26:55.028Z,99693.64
2017-11-25T02:29:22.197Z,99693.50
2017-11-25T02:31:48.624Z,99691.85
2017-11-25T02:34:15.161Z,99693.25
2017-11-25T02:36:41.599Z,99692.24
2017-11-25T02:39:08.034Z,99690.38
2017-11-25T02:41:34.477Z,99688.62
2017-11-25T02:44:00.900Z,99689.57
2017-11-25T02:46:28.154Z,99688.80
2017-11-25T02:48:54.588Z,99690.56
2017-11-25T02:51:21.023Z,99687.41
2017-11-25T02:53:47.457Z,99694.20
2017-11-25T02:56:13.906Z,99693.45
2017-11-25T02:58:40.327Z,99695.13
2017-11-25T03:01:06.774Z,99692.12
2017-11-25T03:03:34.014Z,99680.06
2017-11-25T03:06:00.457Z,99697.98
2017-11-25T03:08:26.896Z,99699.26
2017-11-25T03:10:53.319Z,99694.69
2017-11-25T03:13:19.762Z,99696.09
2017-11-25T03:15:46.188Z,99691.64
2017-11-25T03:18:12.630Z,99691.42
2017-11-25T03:20:39.875Z,99688.83
2017-11-25T03:23:06.310Z,99701.50
2017-11-25T03:25:32.754Z,99700.12
2017-11-25T03:27:59.221Z,99691.75
2017-11-25T03:30:25.590Z,99682.75
2017-11-25T03:32:52.034Z,99679.03
2017-11-25T03:35:18.493Z,99676.53
2017-11-25T03:37:45.703Z,99672.30
2017-11-25T03:40:12.171Z,99673.69
2017-11-25T03:42:38.606Z,99676.17
2017-11-25T03:45:05.045Z,99680.45
2017-11-25T03:47:31.477Z,99681.89
2017-11-25T03:49:57.910Z,99678.77
2017-11-25T03:52:24.351Z,99679.59
2017-11-25T03:54:51.599Z,99679.30
2017-11-25T03:57:18.034Z,99680.63
2017-11-25T03:59:44.468Z,99684.85
2017-11-25T04:02:10.911Z,99680.77
2017-11-25T04:04:37.346Z,99679.09
2017-11-25T04:07:03.745Z,99677.15
2017-11-25T04:09:30.207Z,99675.88
2017-11-25T04:11:57.359Z,99678.48
2017-11-25T04:14:23.759Z,99677.57
2017-11-25T04:16:50.238Z,99676.94
2017-11-25T04:19:16.696Z,99677.30
2017-11-25T04:21:43.213Z,99670.77
2017-11-25T04:24:09.634Z,99678.46
2017-11-25T04:26:36.083Z,99675.41
2017-11-25T04:29:03.323Z,99671.55
2017-11-25T04:31:29.724Z,99670.36
2017-11-25T04:33:56.200Z,99670.91
2017-11-25T04:36:22.625Z,99670.63
2017-11-25T04:38:49.062Z,99683.72
2017-11-25T04:41:15.496Z,99676.59
2017-11-25T04:43:41.929Z,99682.41
2017-11-25T04:46:09.090Z,99683.39
2017-11-25T04:48:35.515Z,99685.14
2017-11-25T04:51:01.959Z,99684.63
2017-11-25T04:53:28.390Z,99686.03
2017-11-25T04:55:54.923Z,99687.02
2017-11-25T04:58:21.365Z,99684.63
2017-11-25T05:00:47.803Z,99682.95
2017-11-25T05:03:14.841Z,99683.39
2017-11-25T05:05:41.283Z,99681.91
2017-11-25T05:08:07.711Z,99677.41
2017-11-25T05:10:34.145Z,99676.94
2017-11-25T05:13:00.588Z,99677.98
2017-11-25T05:15:27.013Z,99677.49
2017-11-25T05:17:53.458Z,99676.92
2017-11-25T05:20:20.534Z,99686.19
2017-11-25T05:22:46.931Z,99690.15
2017-11-25T05:25:13.372Z,99688.06
2017-11-25T05:27:39.734Z,99682.62
2017-11-25T05:30:06.079Z,99687.50
2017-11-25T05:32:32.465Z,99687.57
2017-11-25T05:34:58.798Z,99690.30
2017-11-25T05:37:26.063Z,99694.22
2017-11-25T05:39:52.385Z,99694.73
2017-11-25T05:42:18.831Z,99694.16
2017-11-25T05:44:45.358Z,99691.09
2017-11-25T05:47:11.728Z,99692.70
2017-11-25T05:49:38.085Z,99696.80
2017-11-25T05:52:04.563Z,99705.43
2017-11-25T05:54:31.717Z,99709.27
2017-11-25T05:56:58.154Z,99700.89
2017-11-25T05:59:24.578Z,99702.33
2017-11-25T06:01:50.996Z,99701.01
2017-11-25T06:04:17.446Z,99697.52
2017-11-25T06:06:43.882Z,99699.89
2017-11-25T06:09:10.324Z,99699.81
2017-11-25T06:11:37.578Z,99700.61
2017-11-25T06:14:04.004Z,99696.34
2017-11-25T06:16:30.336Z,99698.16
2017-11-25T06:18:56.771Z,99697.94
2017-11-25T06:21:23.214Z,99704.44
2017-11-25T06:23:49.622Z,99701.55
2017-11-25T06:26:16.040Z,99699.45
2017-11-25T06:28:43.226Z,99699.88
2017-11-25T06:31:09.664Z,99700.70
2017-11-25T06:33:36.105Z,99703.59
2017-11-25T06:36:02.542Z,99697.06
2017-11-25T06:38:28.950Z,99694.69
2017-11-25T06:40:55.403Z,99699.51
2017-11-25T06:43:21.835Z,99703.03
2017-11-25T06:45:49.099Z,99702.87
2017-11-25T06:48:15.524Z,99703.72
2017-11-25T06:50:41.957Z,99708.67
2017-11-25T06:53:08.393Z,99701.06
2017-11-25T06:55:34.827Z,99702.75
2017-11-25T06:58:01.272Z,99696.56
2017-11-25T07:00:27.664Z,99696.05
2017-11-25T07:02:54.856Z,99694.81
2017-11-25T07:05:21.282Z,99696.63
2017-11-25T07:07:47.716Z,99687.58
2017-11-25T07:10:14.152Z,99686.56
2017-11-25T07:12:40.591Z,99686.39
2017-11-25T07:15:07.126Z,99677.75
2017-11-25T07:17:33.864Z,99685.98
2017-11-25T07:20:00.720Z,99685.62
2017-11-25T07:22:27.144Z,99680.34
2017-11-25T07:24:53.586Z,99676.48
2017-11-25T07:27:20.013Z,99679.70
2017-11-25T07:29:46.652Z,99677.60
2017-11-25T07:32:13.096Z,99678.77
2017-11-25T07:34:39.634Z,99667.05
2017-11-25T07:37:06.068Z,99671.27
2017-11-25T07:39:32.494Z,99672.10
2017-11-25T07:52:04.224Z,99670.93
2017-11-25T07:54:30.660Z,99677.73
2017-11-25T07:56:57.922Z,99676.13
2017-11-25T08:04:27.567Z,99672.81
2017-11-25T08:06:54.010Z,99666.90
2017-11-25T08:09:20.540Z,99667.19
2017-11-25T08:11:47.069Z,99661.22
2017-11-25T08:14:13.502Z,99657.22
2017-11-25T08:16:39.938Z,99654.66
2017-11-25T08:19:06.576Z,99657.13
2017-11-25T08:21:33.122Z,99656.65
2017-11-25T08:23:59.557Z,99657.27
2017-11-25T08:26:25.998Z,99655.66
2017-11-25T08:28:52.529Z,99661.02
2017-11-25T08:31:19.160Z,99654.98
2017-11-25T08:33:45.603Z,99656.24
2017-11-25T08:36:12.047Z,99656.14
2017-11-25T08:38:38.677Z,99660.03
2017-11-25T08:41:05.105Z,99650.00
2017-11-25T08:43:31.760Z,99657.74
2017-11-25T08:45:58.602Z,99657.16
2017-11-25T08:48:25.125Z,99645.23
2017-11-25T08:50:51.875Z,99645.05
2017-11-25T08:53:18.301Z,99636.49
2017-11-25T08:55:44.933Z,99640.68
2017-11-25T08:58:11.578Z,99643.59
2017-11-25T09:00:38.091Z,99629.09
2017-11-25T09:03:04.664Z,99627.70
2017-11-25T09:05:31.621Z,99629.14
2017-11-25T09:07:58.241Z,99624.76
2017-11-25T09:10:24.803Z,99622.69
2017-11-25T09:12:51.832Z,99624.95
2017-11-25T09:15:18.567Z,99612.68
2017-11-25T09:17:45.311Z,99611.30
2017-11-25T09:20:12.265Z,99612.95
2017-11-25T09:22:38.698Z,99615.53
2017-11-25T09:25:05.176Z,99604.03
2017-11-25T09:27:31.664Z,99609.30
2017-11-25T09:29:58.695Z,99607.64
2017-11-25T09:32:25.147Z,99616.58
2017-11-25T09:34:51.715Z,99613.81
2017-11-25T09:37:18.220Z,99607.52
2017-11-25T09:39:44.970Z,99605.27
2017-11-25T09:42:11.406Z,99599.96
2017-11-25T09:44:37.935Z,99603.23
2017-11-25T09:47:04.368Z,99596.18
2017-11-25T09:49:30.892Z,99588.08
2017-11-25T09:51:57.339Z,99587.70
2017-11-25T09:54:23.956Z,99588.13
2017-11-25T09:56:51.241Z,99582.31
2017-11-25T09:59:17.703Z,99578.18
2017-11-25T10:01:44.104Z,99573.41
2017-11-25T10:04:10.540Z,99566.39
2017-11-25T10:09:08.918Z,99561.59
2017-11-25T10:11:35.369Z,99552.78
2017-11-25T10:14:01.805Z,99554.88
2017-11-25T10:16:28.342Z,99557.52
2017-11-25T10:18:54.878Z,99555.73
2017-11-25T10:21:21.327Z,99551.20
2017-11-25T10:23:47.762Z,99551.41
2017-11-25T10:26:14.285Z,99543.50
2017-11-25T10:28:41.233Z,99543.70
2017-11-25T10:31:07.667Z,99538.55
2017-11-25T10:33:34.107Z,99535.91
2017-11-25T10:36:00.535Z,99541.02
2017-11-25T10:38:27.081Z,99538.47
2017-11-25T10:40:53.514Z,99533.80
2017-11-25T10:43:19.945Z,99541.45
2017-11-25T10:45:46.395Z,99531.46
2017-11-25T10:48:13.427Z,99539.95
2017-11-25T10:50:40.037Z,99529.27
2017-11-25T10:53:06.610Z,99529.38
2017-11-25T10:55:33.555Z,99520.27
2017-11-25T10:58:00.208Z,99527.92
2017-11-25T11:00:26.727Z,99524.81
2017-11-25T11:02:53.547Z,99521.66
2017-11-25T11:05:20.515Z,99518.09
2017-11-25T11:07:46.990Z,99521.31
2017-11-25T11:10:13.581Z,99510.43
2017-11-25T11:12:40.140Z,99516.58
2017-11-25T11:15:06.667Z,99512.27
2017-11-25T11:17:33.275Z,99511.80
2017-11-25T11:20:00.258Z,99508.79
2017-11-25T11:22:26.797Z,99513.80
2017-11-25T11:24:53.334Z,99513.73
2017-11-25T11:27:19.695Z,99514.77
2017-11-25T11:29:46.614Z,99514.97
2017-11-25T11:32:13.150Z,99512.83
2017-11-25T11:34:40.088Z,99513.30
2017-11-25T11:37:06.840Z,99502.41
2017-11-25T11:39:33.475Z,99505.47
2017-11-25T11:41:59.911Z,99504.38
2017-11-25T11:44:26.338Z,99505.66
2017-11-25T11:46:53.213Z,99490.69
2017-11-25T11:49:19.683Z,99495.88
2017-11-25T11:51:46.051Z,99494.08
2017-11-25T11:54:12.383Z,99486.66
2017-11-25T11:56:38.825Z,99492.01
2017-11-25T11:59:05.347Z,99492.50
2017-11-25T12:01:31.790Z,99483.53
2017-11-25T12:03:58.122Z,99488.19
2017-11-25T12:06:24.564Z,99490.59
2017-11-25T12:08:51.195Z,99489.52
2017-11-25T12:11:17.638Z,99486.22
2017-11-25T12:13:44.073Z,99483.36
2017-11-25T12:16:10.501Z,99480.38
2017-11-25T12:18:37.030Z,99472.95
2017-11-25T12:21:03.479Z,99475.98
2017-11-25T12:23:29.905Z,99476.88
2017-11-25T12:25:56.340Z,99474.86
2017-11-25T12:28:23.272Z,99471.81
2017-11-25T12:30:49.691Z,99474.06
2017-11-25T12:33:16.162Z,99473.03
2017-11-25T12:35:42.697Z,99481.67
2017-11-25T12:38:09.231Z,99478.27
2017-11-25T12:40:35.668Z,99481.04
2017-11-25T12:43:02.616Z,99482.59
2017-11-25T12:45:29.055Z,99479.70
2017-11-25T12:47:55.592Z,99480.75
2017-11-25T12:50:22.848Z,99487.98
2017-11-25T12:52:49.373Z,99487.88
2017-11-25T12:55:15.970Z,99489.69
2017-11-25T12:57:42.443Z,99490.59
2017-11-25T13:00:08.881Z,99492.67
2017-11-25T13:02:35.319Z,99483.59
2017-11-25T13:05:01.751Z,99485.09
2017-11-25T13:07:28.188Z,99479.27
2017-11-25T13:09:54.620Z,99478.27
2017-11-25T13:12:21.055Z,99476.78
2017-11-25T13:14:47.631Z,99476.78
2017-11-25T13:17:13.996Z,99474.08
2017-11-25T13:19:40.462Z,99480.55
2017-11-25T13:22:06.998Z,99470.34
2017-11-25T13:24:33.432Z,99472.67
2017-11-25T13:26:59.868Z,99475.69
2017-11-25T13:29:26.311Z,99465.85
2017-11-25T13:31:52.736Z,99471.88
2017-11-25T13:34:19.171Z,99473.22
2017-11-25T13:36:45.580Z,99474.14
2017-11-25T13:39:12.050Z,99471.84
2017-11-25T13:41:38.894Z,99472.12
2017-11-25T13:44:05.329Z,99471.54
2017-11-25T13:46:32.585Z,99466.87
2017-11-25T13:48:59.010Z,99470.95
2017-11-25T13:51:25.452Z,99470.09
2017-11-25T13:53:52.594Z,99464.48
2017-11-25T13:56:19.029Z,99468.97
2017-11-25T13:58:45.575Z,99469.83
2017-11-25T14:01:12.009Z,99464.42
2017-11-25T14:03:38.436Z,99468.59
2017-11-25T14:06:04.870Z,99467.98
2017-11-25T14:08:31.304Z,99461.70
2017-11-25T14:10:57.747Z,99456.64
2017-11-25T14:13:24.114Z,99457.46
2017-11-25T14:15:50.814Z,99461.78
2017-11-25T14:18:17.249Z,99465.20
2017-11-25T14:20:43.750Z,99464.34
2017-11-25T14:23:10.325Z,99461.42
2017-11-25T14:25:36.757Z,99460.16
2017-11-25T14:28:03.200Z,99468.22
2017-11-25T14:30:29.597Z,99464.53
2017-11-25T14:32:56.076Z,99461.25
2017-11-25T14:35:22.607Z,99465.77
2017-11-25T14:37:49.850Z,99462.00
2017-11-25T14:40:16.293Z,99465.48
2017-11-25T14:42:43.133Z,99460.20
2017-11-25T14:45:10.392Z,99463.01
2017-11-25T14:47:36.776Z,99459.08
2017-11-25T14:50:03.220Z,99456.52
2017-11-25T14:52:29.900Z,99460.84
2017-11-25T14:54:56.337Z,99463.27
2017-11-25T14:57:22.762Z,99459.41
2017-11-25T14:59:49.196Z,99452.70
2017-11-25T15:02:15.562Z,99454.53
2017-11-25T15:04:41.963Z,99444.75
2017-11-25T15:07:08.815Z,99445.80
2017-11-25T15:09:35.249Z,99445.94
2017-11-25T15:12:01.684Z,99443.70
2017-11-25T15:14:28.119Z,99449.45
2017-11-25T15:16:54.546Z,99453.47
2017-11-25T15:19:20.982Z,99450.99
2017-11-25T15:21:47.414Z,99458.08
2017-11-25T15:24:14.259Z,99455.92
2017-11-25T15:26:40.797Z,99462.05
2017-11-25T15:29:07.235Z,99455.50
2017-11-25T15:31:33.599Z,99451.48
2017-11-25T15:33:59.978Z,99453.75
2017-11-25T15:36:26.429Z,99447.16
2017-11-25T15:38:52.867Z,99444.61
2017-11-25T15:41:19.310Z,99443.73
2017-11-25T15:43:45.739Z,99444.05
2017-11-25T15:46:12.179Z,99446.27
2017-11-25T15:48:38.606Z,99437.16
2017-11-25T15:51:05.042Z,99437.08
2017-11-25T15:53:31.474Z,99431.09
2017-11-25T15:55:57.909Z,99431.88
2017-11-25T15:58:24.353Z,99433.04
2017-11-25T16:00:50.781Z,99425.30
2017-11-25T16:03:17.216Z,99421.58
2017-11-25T16:05:43.584Z,99421.89
2017-11-25T16:08:09.943Z,99425.24
2017-11-25T16:10:36.419Z,99419.22
2017-11-25T16:13:02.851Z,99418.84
2017-11-25T16:15:30.103Z,99418.20
2017-11-25T16:17:56.537Z,99408.88
2017-11-25T16:20:22.975Z,99414.34
2017-11-25T16:22:49.409Z,99414.47
2017-11-25T16:25:15.842Z,99415.22
2017-11-25T16:27:42.276Z,99418.10
2017-11-25T16:30:08.710Z,99406.13
2017-11-25T16:32:35.871Z,99414.00
2017-11-25T16:35:02.306Z,99415.98
2017-11-25T16:37:28.735Z,99411.26
2017-11-25T16:39:55.167Z,99409.09
2017-11-25T16:42:21.534Z,99410.25
2017-11-25T16:44:47.900Z,99411.48
2017-11-25T16:47:14.379Z,99410.62
2017-11-25T16:49:41.529Z,99404.70
2017-11-25T16:52:07.958Z,99402.91
2017-11-25T16:54:34.393Z,99396.08
2017-11-25T16:57:00.823Z,99386.77
2017-11-25T16:59:27.269Z,99393.98
2017-11-25T17:01:53.691Z,99391.23
2017-11-25T17:04:20.129Z,99393.98
2017-11-25T17:06:47.286Z,99391.18
2017-11-25T17:09:13.718Z,99390.26
2017-11-25T17:11:40.155Z,99390.87
2017-11-25T17:14:06.590Z,99389.84
2017-11-25T17:16:33.025Z,99385.06
2017-11-25T17:18:59.462Z,99384.75
2017-11-25T17:21:25.885Z,99385.25
2017-11-25T17:23:53.125Z,99390.03
2017-11-25T17:26:19.543Z,99381.21
2017-11-25T17:28:46.018Z,99385.73
2017-11-25T17:31:12.409Z,99380.11
2017-11-25T17:33:38.868Z,99385.19
2017-11-25T17:36:05.312Z,99394.03
2017-11-25T17:38:31.745Z,99386.22
2017-11-25T17:40:58.907Z,99383.45
2017-11-25T17:43:25.333Z,99385.49
2017-11-25T17:45:51.788Z,99386.68
2017-11-25T17:48:18.202Z,99381.27
2017-11-25T17:50:44.740Z,99386.03
2017-11-25T17:53:11.174Z,99377.81
2017-11-25T17:55:37.544Z,99372.23
2017-11-25T17:58:04.768Z,99371.84
2017-11-25T18:00:31.203Z,99369.83
2017-11-25T18:02:57.565Z,99367.44
2017-11-25T18:05:23.960Z,99365.32
2017-11-25T18:07:50.395Z,99360.40
2017-11-25T18:10:16.934Z,99365.64
2017-11-25T18:12:43.376Z,99358.87
2017-11-25T18:15:10.518Z,99359.31
2017-11-25T18:17:36.962Z,99360.06
2017-11-25T18:20:03.387Z,99354.79
2017-11-25T18:22:29.821Z,99355.06
2017-11-25T18:24:56.257Z,99354.00
2017-11-25T18:27:22.691Z,99350.63
2017-11-25T18:29:49.128Z,99350.22
2017-11-25T18:32:16.286Z,99347.27
2017-11-25T18:34:42.713Z,99343.02
2017-11-25T18:37:09.150Z,99344.59
2017-11-25T18:39:35.515Z,99343.39
2017-11-25T18:42:01.893Z,99345.89
2017-11-25T18:44:28.247Z,99345.81
2017-11-25T18:46:54.681Z,99343.78
2017-11-25T18:49:21.925Z,99342.25
2017-11-25T18:51:48.369Z,99346.39
2017-11-25T18:54:14.805Z,99349.70
2017-11-25T18:56:41.225Z,99351.96
2017-11-25T18:59:07.643Z,99349.09
2017-11-25T19:01:34.017Z,99349.55
2017-11-25T19:04:00.447Z,99350.86
2017-11-25T19:06:27.701Z,99352.16
2017-11-25T19:08:54.129Z,99357.36
2017-11-25T19:11:20.564Z,99356.62
2017-11-25T19:13:47.002Z,99361.63
2017-11-25T19:16:13.462Z,99363.80
2017-11-25T19:18:39.984Z,99366.25
2017-11-25T19:21:06.413Z,99373.38
2017-11-25T19:23:33.670Z,99371.86
2017-11-25T19:26:00.092Z,99367.00
2017-11-25T19:28:26.527Z,99366.91
2017-11-25T19:30:52.962Z,99368.13
2017-11-25T19:33:19.396Z,99368.64
2017-11-25T19:35:45.838Z,99371.17
2017-11-25T19:38:12.265Z,99371.91
2017-11-25T19:40:39.509Z,99364.14
2017-11-25T19:43:05.926Z,99371.58
2017-11-25T19:45:32.391Z,99371.44
2017-11-25T19:47:58.940Z,99367.31
2017-11-25T19:50:25.359Z,99367.90
2017-11-25T19:52:51.802Z,99372.48
2017-11-25T19:55:18.237Z,99377.81
2017-11-25T19:57:45.514Z,99376.72
2017-11-25T20:00:11.917Z,99377.97
2017-11-25T20:02:38.352Z,99376.41
2017-11-25T20:05:04.787Z,99377.04
2017-11-25T20:07:31.231Z,99382.01
2017-11-25T20:09:57.656Z,99376.87
2017-11-25T20:12:24.091Z,99378.58
2017-11-25T20:14:51.224Z,99389.77
2017-11-25T20:17:17.676Z,99384.30
2017-11-25T20:19:44.109Z,99384.72
2017-11-25T20:22:10.658Z,99392.40
2017-11-25T20:24:37.085Z,99396.66
2017-11-25T20:27:03.517Z,99398.27
2017-11-25T20:29:29.951Z,99401.95
2017-11-25T20:31:57.103Z,99399.25
2017-11-25T20:34:23.538Z,99405.86
2017-11-25T20:36:49.973Z,99406.70
2017-11-25T20:39:16.416Z,99410.22
2017-11-25T20:41:42.849Z,99412.11
2017-11-25T20:44:09.277Z,99410.14
2017-11-25T20:46:35.711Z,99415.78
2017-11-25T20:49:02.863Z,99413.63
2017-11-25T20:51:29.288Z,99412.11
2017-11-25T20:53:55.720Z,99418.73
2017-11-25T20:56:22.167Z,99411.57
2017-11-25T20:58:48.600Z,99417.55
2017-11-25T21:01:15.030Z,99415.38
2017-11-25T21:03:41.470Z,99414.30
2017-11-25T21:06:08.727Z,99412.55
2017-11-25T21:08:35.159Z,99403.77
2017-11-25T21:11:01.526Z,99409.55
2017-11-25T21:13:27.934Z,99408.23
2017-11-25T21:15:54.360Z,99409.58
2017-11-25T21:18:20.906Z,99400.75
2017-11-25T21:20:47.332Z,99407.77
2017-11-25T21:23:14.485Z,99402.55
2017-11-25T21:25:40.930Z,99399.52
2017-11-25T21:28:07.352Z,99400.88
2017-11-25T21:30:33.795Z,99402.12
2017-11-25T21:33:00.221Z,99392.94
2017-11-25T21:35:26.663Z,99400.11
2017-11-25T21:37:53.093Z,99391.84
2017-11-25T21:40:20.246Z,99393.04
2017-11-25T21:42:46.679Z,99394.38
2017-11-25T21:45:13.122Z,99389.77
2017-11-25T21:47:39.478Z,99388.84
2017-11-25T21:50:05.990Z,99384.36
2017-11-25T21:52:32.425Z,99379.34
2017-11-25T21:54:58.952Z,99382.55
2017-11-25T21:57:26.089Z,99383.05
2017-11-25T21:59:52.509Z,99372.30
2017-11-25T22:02:18.972Z,99366.16
2017-11-25T22:04:45.416Z,99370.76
2017-11-25T22:07:11.845Z,99368.37
2017-11-25T22:09:38.172Z,99367.27
2017-11-25T22:12:04.719Z,99368.87
2017-11-25T22:14:31.872Z,99363.88
2017-11-25T22:16:58.298Z,99362.91
2017-11-25T22:19:24.742Z,99356.02
2017-11-25T22:21:51.172Z,99360.14
2017-11-25T22:24:17.604Z,99354.08
2017-11-25T22:26:44.036Z,99344.70
2017-11-25T22:29:10.472Z,99339.70
2017-11-25T22:31:37.727Z,99338.45
2017-11-25T22:34:04.159Z,99338.22
2017-11-25T22:36:30.708Z,99336.84
2017-11-25T22:38:57.142Z,99331.92
2017-11-25T22:41:23.499Z,99326.27
2017-11-25T22:43:49.907Z,99324.13
2017-11-25T22:46:16.333Z,99330.50
2017-11-25T22:48:43.594Z,99325.41
2017-11-25T22:51:10.029Z,99323.86
2017-11-25T22:53:36.456Z,99320.45
2017-11-25T22:56:02.889Z,99313.56
2017-11-25T22:58:29.332Z,99313.06
2017-11-25T23:00:55.759Z,99305.61
2017-11-25T23:03:22.193Z,99304.73
2017-11-25T23:05:49.353Z,99300.42
2017-11-25T23:08:15.779Z,99294.40
2017-11-25T23:10:42.111Z,99289.20
2017-11-25T23:13:08.648Z,99293.89
2017-11-25T23:15:35.091Z,99297.58
2017-11-25T23:18:01.450Z,99295.37
2017-11-25T23:20:27.961Z,99291.33
2017-11-25T23:22:55.112Z,99288.02
2017-11-25T23:25:21.477Z,99287.16
2017-11-25T23:27:47.870Z,99286.51
2017-11-25T23:30:14.304Z,99290.09
2017-11-25T23:32:40.748Z,99283.48
2017-11-25T23:35:07.179Z,99286.73
2017-11-25T23:37:33.617Z,99278.00
2017-11-25T23:40:00.863Z,99278.45
2017-11-25T23:42:27.307Z,99282.05
2017-11-25T23:44:53.740Z,99285.22
2017-11-25T23:47:20.175Z,99281.78
2017-11-25T23:49:46.610Z,99282.51
2017-11-25T23:52:13.044Z,99272.19
2017-11-25T23:54:39.439Z,99276.69
2017-11-25T23:57:06.727Z,99277.96
2017-11-25T23:59:33.160Z,99276.09
